Time;durP1;ratioP1;P1;durP2;ratioP2;P2;SDS_P1;SDS_P2;PMS_P1;PMS_P2;Temp;Humidity;BMP_temperature;BMP_pressure;BME280_temperature;BME280_humidity;BME280_pressure;Samples;Min_cycle;Max_cycle;Signal;HPM_P1;HPM_P2
2022/10/04 00:01:57;;;;;;;12.00;5.22;;;15.40;99.90;;;;;;4995837;28;20113;-83
2022/10/04 00:07:33;;;;;;;10.98;5.18;;;15.40;99.90;;;;;;4997034;28;20097;-85
2022/10/04 00:10:02;;;;;;;;;;;15.40;99.90;;;;;;4995575;28;20030;-87
2022/10/04 00:12:44;;;;;;;9.50;4.55;;;15.30;99.90;;;;;;4995953;28;19913;-87
2022/10/04 00:15:27;;;;;;;11.10;4.43;;;15.30;99.90;;;;;;4995938;28;20022;-87
2022/10/04 00:18:10;;;;;;;13.45;4.25;;;15.30;99.90;;;;;;4995674;28;20058;-87
2022/10/04 00:20:54;;;;;;;12.13;4.40;;;15.30;99.90;;;;;;4995626;28;20034;-87
2022/10/04 00:23:22;;;;;;;11.45;4.60;;;15.30;99.90;;;;;;5010783;28;20022;-87
2022/10/04 00:25:49;;;;;;;10.63;4.72;;;15.30;99.90;;;;;;5011147;28;20463;-87
2022/10/04 00:28:20;;;;;;;7.68;4.25;;;15.30;99.90;;;;;;5010787;28;20022;-87
2022/10/04 00:31:13;;;;;;;13.73;4.57;;;15.30;99.90;;;;;;4995852;28;20031;-87
2022/10/04 00:33:44;;;;;;;9.18;4.00;;;15.30;99.90;;;;;;4995842;28;20019;-87
2022/10/04 00:36:35;;;;;;;11.13;3.90;;;15.30;99.90;;;;;;4994652;28;20166;-87
2022/10/04 00:39:06;;;;;;;10.63;4.78;;;15.30;99.90;;;;;;4995748;28;20051;-87
2022/10/04 00:41:51;;;;;;;10.85;4.28;;;15.20;99.90;;;;;;4995692;28;20084;-87
2022/10/04 00:44:22;;;;;;;7.97;3.83;;;15.20;99.90;;;;;;4994124;28;20105;-87
2022/10/04 00:46:49;;;;;;;11.18;4.40;;;15.20;99.90;;;;;;5010610;28;20027;-87
2022/10/04 00:49:20;;;;;;;9.82;5.15;;;15.20;99.90;;;;;;5010575;28;20042;-87
2022/10/04 00:51:50;;;;;;;11.45;4.60;;;15.10;99.90;;;;;;4994302;28;20023;-87
2022/10/04 00:54:24;;;;;;;10.10;4.60;;;15.10;99.90;;;;;;4995247;28;20022;-87
2022/10/04 00:56:54;;;;;;;8.85;4.72;;;15.10;99.90;;;;;;4995426;28;20045;-86
2022/10/04 00:59:28;;;;;;;11.03;4.40;;;15.10;99.90;;;;;;4995224;28;20523;-87
2022/10/04 01:02:18;;;;;;;11.05;4.05;;;15.10;99.90;;;;;;5010158;28;20277;-86
2022/10/04 01:04:52;;;;;;;9.95;4.13;;;15.00;99.90;;;;;;4985879;28;20449;-86
2022/10/04 01:07:24;;;;;;;10.10;3.80;;;15.00;99.90;;;;;;4994812;28;20050;-87
2022/10/04 01:09:55;;;;;;;11.35;4.10;;;15.00;99.90;;;;;;4993899;28;20030;-87
2022/10/04 01:12:40;;;;;;;7.70;4.00;;;15.00;99.90;;;;;;4993428;28;20022;-87
2022/10/04 01:15:18;;;;;;;7.18;3.92;;;15.00;99.90;;;;;;4993993;28;20092;-87
2022/10/04 01:18:27;;;;;;;8.93;4.05;;;14.90;99.90;;;;;;5010158;28;20034;-87
2022/10/04 01:21:17;;;;;;;8.85;4.35;;;14.90;99.90;;;;;;4995089;28;20019;-87
2022/10/04 01:23:46;;;;;;;7.88;4.15;;;14.90;99.90;;;;;;5009700;28;20027;-89
2022/10/04 01:26:33;;;;;;;6.53;4.30;;;14.90;99.90;;;;;;4993985;28;20037;-88
2022/10/04 01:29:11;;;;;;;8.30;4.03;;;14.90;99.90;;;;;;4994964;28;20113;-87
2022/10/04 01:31:48;;;;;;;8.20;4.00;;;14.80;99.90;;;;;;4993506;28;20062;-87
2022/10/04 01:34:17;;;;;;;8.93;4.15;;;14.80;99.90;;;;;;4994006;28;20475;-86
2022/10/04 01:36:45;;;;;;;8.63;4.38;;;14.80;99.90;;;;;;4993275;28;20459;-87
2022/10/04 01:39:12;;;;;;;8.30;3.88;;;14.80;99.90;;;;;;4993352;28;20050;-87
2022/10/04 01:42:14;;;;;;;10.18;4.30;;;14.80;99.90;;;;;;4994427;28;20023;-87
2022/10/04 01:44:44;;;;;;;9.27;4.93;;;14.80;99.90;;;;;;4989731;28;20045;-87
2022/10/04 01:47:21;;;;;;;9.68;4.40;;;14.80;99.90;;;;;;4993360;28;20031;-86
2022/10/04 01:49:49;;;;;;;12.07;4.97;;;14.80;99.90;;;;;;4993667;28;20089;-87
2022/10/04 01:52:27;;;;;;;12.32;5.68;;;14.80;99.90;;;;;;4992954;28;20034;-87
2022/10/04 01:55:25;;;;;;;11.15;4.40;;;14.80;99.90;;;;;;4994605;28;20022;-87
2022/10/04 01:58:19;;;;;;;12.60;4.55;;;14.70;99.90;;;;;;4981600;28;20053;-87
2022/10/04 02:00:51;;;;;;;8.18;4.32;;;14.70;99.90;;;;;;4994250;28;20085;-87
2022/10/04 02:03:23;;;;;;;12.00;5.20;;;14.70;99.90;;;;;;4994449;28;20479;-87
2022/10/04 02:05:57;;;;;;;10.45;4.97;;;14.70;99.90;;;;;;4993294;28;20022;-87
2022/10/04 02:08:28;;;;;;;11.93;4.60;;;14.70;99.90;;;;;;4993108;28;20029;-88
2022/10/04 02:10:55;;;;;;;9.45;4.65;;;14.60;99.90;;;;;;4994328;28;20038;-87
2022/10/04 02:13:26;;;;;;;12.00;5.22;;;14.60;99.90;;;;;;5009606;28;20439;-89
2022/10/04 02:15:52;;;;;;;11.05;4.50;;;14.60;99.90;;;;;;4992928;28;20391;-87
2022/10/04 02:18:20;;;;;;;7.90;4.43;;;14.60;99.90;;;;;;5013030;28;20026;-87
2022/10/04 02:20:48;;;;;;;8.40;4.32;;;14.60;99.90;;;;;;4996789;28;20030;-86
2022/10/04 02:23:17;;;;;;;9.52;4.88;;;14.50;99.90;;;;;;4998225;28;20034;-87
2022/10/04 02:25:43;;;;;;;7.65;4.07;;;14.50;99.90;;;;;;4996725;28;20030;-87
2022/10/04 02:28:12;;;;;;;11.02;4.65;;;14.50;99.90;;;;;;5013070;28;20026;-87
2022/10/04 02:30:39;;;;;;;9.63;4.72;;;14.50;99.90;;;;;;4980578;28;20061;-87
2022/10/04 02:33:06;;;;;;;9.63;4.95;;;14.50;99.90;;;;;;4996752;28;20031;-87
2022/10/04 02:35:45;;;;;;;10.48;5.03;;;14.40;99.90;;;;;;4980424;28;20027;-87
2022/10/04 02:38:34;;;;;;;8.40;5.10;;;14.50;99.90;;;;;;4996795;28;20086;-88
2022/10/04 02:41:27;;;;;;;12.90;5.75;;;14.40;99.90;;;;;;4998174;28;20073;-88
2022/10/04 02:44:07;;;;;;;13.05;6.50;;;14.40;99.90;;;;;;4996838;28;20102;-86
2022/10/04 02:46:49;;;;;;;15.45;7.30;;;14.40;99.90;;;;;;4997903;28;20026;-86
2022/10/04 02:49:40;;;;;;;10.00;6.50;;;14.40;99.90;;;;;;4996985;28;20026;-86
2022/10/04 02:52:36;;;;;;;13.10;6.72;;;14.40;99.90;;;;;;4996769;28;20054;-85
2022/10/04 02:55:11;;;;;;;13.98;7.38;;;14.40;99.90;;;;;;4996574;28;20113;-87
2022/10/04 02:57:41;;;;;;;15.02;7.93;;;14.30;99.90;;;;;;5012547;28;20069;-87
2022/10/04 03:00:15;;;;;;;15.43;8.13;;;14.40;99.90;;;;;;4997544;28;20030;-88
2022/10/04 03:03:01;;;;;;;16.98;8.20;;;14.30;99.90;;;;;;5012641;28;20378;-87
2022/10/04 03:05:27;;;;;;;11.98;6.97;;;14.30;99.90;;;;;;4995865;28;20026;-87
2022/10/04 03:07:53;;;;;;;12.95;7.93;;;14.20;99.90;;;;;;4979835;28;20113;-87
2022/10/04 03:10:19;;;;;;;11.02;7.22;;;14.20;99.90;;;;;;4996182;28;20121;-86
2022/10/04 03:12:49;;;;;;;14.10;7.97;;;14.20;99.90;;;;;;4963839;28;20022;-87
2022/10/04 03:15:15;;;;;;;15.57;7.43;;;14.20;99.90;;;;;;4996709;28;20041;-87
2022/10/04 03:17:42;;;;;;;11.00;7.18;;;14.20;99.90;;;;;;4997043;28;20366;-87
2022/10/04 03:20:15;;;;;;;12.80;7.25;;;14.20;99.90;;;;;;4979570;28;20019;-87
2022/10/04 03:22:44;;;;;;;14.00;7.40;;;14.10;99.90;;;;;;4995827;28;20037;-85
2022/10/04 03:25:36;;;;;;;17.35;7.68;;;14.10;99.90;;;;;;4995893;28;20509;-87
2022/10/04 03:28:03;;;;;;;15.40;7.72;;;14.10;99.90;;;;;;4989406;28;20034;-87
2022/10/04 03:30:31;;;;;;;14.48;7.35;;;14.10;99.90;;;;;;4963646;28;20057;-87
2022/10/04 03:32:57;;;;;;;12.85;8.27;;;14.00;99.90;;;;;;4979704;28;20030;-87
2022/10/04 03:35:31;;;;;;;13.23;7.80;;;14.00;99.90;;;;;;4995651;28;20117;-87
2022/10/04 03:37:58;;;;;;;15.32;8.27;;;14.00;99.90;;;;;;4995636;28;20027;-87
2022/10/04 03:40:28;;;;;;;16.55;8.93;;;14.00;99.90;;;;;;4979233;28;20062;-88
2022/10/04 03:42:55;;;;;;;16.00;9.07;;;14.00;99.90;;;;;;4996989;28;20041;-86
2022/10/04 03:45:22;;;;;;;17.95;9.70;;;14.00;99.90;;;;;;5012096;28;20031;-85
2022/10/04 03:47:50;;;;;;;14.77;8.52;;;13.90;99.90;;;;;;4979638;28;20463;-87
2022/10/04 03:50:22;;;;;;;17.92;8.63;;;13.90;99.90;;;;;;4996851;28;20037;-86
2022/10/04 03:52:58;;;;;;;13.13;7.60;;;13.90;99.90;;;;;;4995452;28;20022;-87
2022/10/04 03:55:31;;;;;;;11.43;7.95;;;13.90;99.90;;;;;;4996318;28;20026;-86
2022/10/04 03:57:58;;;;;;;13.27;8.20;;;13.90;99.90;;;;;;4995236;28;20030;-87
2022/10/04 04:00:23;;;;;;;13.38;7.72;;;13.90;99.90;;;;;;4996529;28;20136;-86
2022/10/04 04:02:57;;;;;;;11.82;7.47;;;13.80;99.90;;;;;;5012055;28;20034;-86
2022/10/04 04:05:43;;;;;;;18.08;8.68;;;13.80;99.90;;;;;;4995232;28;20026;-86
2022/10/04 04:08:27;;;;;;;13.20;8.52;;;13.80;99.90;;;;;;4996486;28;20434;-87
2022/10/04 04:10:56;;;;;;;13.20;7.93;;;13.70;99.90;;;;;;4996182;28;20061;-86
2022/10/04 04:13:49;;;;;;;14.90;8.75;;;13.70;99.90;;;;;;5011261;28;20032;-86
2022/10/04 04:16:18;;;;;;;14.77;8.70;;;13.70;99.90;;;;;;4996753;28;20031;-88
2022/10/04 04:18:47;;;;;;;15.88;8.35;;;13.60;99.90;;;;;;4996312;28;20030;-87
2022/10/04 04:21:17;;;;;;;12.80;8.40;;;13.60;99.90;;;;;;4996582;28;20113;-87
2022/10/04 04:23:52;;;;;;;14.25;9.38;;;13.60;99.90;;;;;;4996251;28;20018;-88
2022/10/04 04:26:44;;;;;;;14.20;9.38;;;13.60;99.90;;;;;;4995303;28;20034;-88
2022/10/04 04:29:10;;;;;;;20.73;9.13;;;13.50;99.90;;;;;;4995338;28;20057;-87
2022/10/04 04:35:07;;;;;;;15.15;9.68;;;13.50;99.90;;;;;;4975728;28;20046;-88
2022/10/04 04:37:37;;;;;;;16.15;9.52;;;13.50;99.90;;;;;;4995938;28;20054;-87
2022/10/04 04:40:23;;;;;;;16.45;9.25;;;13.40;99.90;;;;;;4978038;28;20053;-88
2022/10/04 04:42:50;;;;;;;15.60;9.73;;;13.40;99.90;;;;;;4994522;28;20032;-88
2022/10/04 04:45:24;;;;;;;14.57;10.23;;;13.40;99.90;;;;;;4978411;28;20035;-87
2022/10/04 04:47:52;;;;;;;16.88;9.70;;;13.40;99.90;;;;;;4994628;28;20030;-88
2022/10/04 04:50:39;;;;;;;15.75;9.68;;;13.40;99.90;;;;;;4994855;28;20096;-91
2022/10/04 04:53:16;;;;;;;15.88;9.50;;;13.30;99.90;;;;;;4994719;28;20031;-92
2022/10/04 04:55:48;;;;;;;16.90;8.73;;;13.30;99.90;;;;;;4994198;28;20084;-89
2022/10/04 04:58:20;;;;;;;19.38;9.30;;;13.30;99.90;;;;;;4994621;28;20423;-89
2022/10/04 05:00:53;;;;;;;15.80;9.68;;;13.30;99.90;;;;;;4995468;28;20026;-88
2022/10/04 05:03:20;;;;;;;14.30;9.32;;;13.30;99.90;;;;;;4995431;28;20055;-85
2022/10/04 05:05:46;;;;;;;15.68;8.68;;;13.30;99.90;;;;;;4977992;28;20037;-86
2022/10/04 05:08:26;;;;;;;18.50;9.75;;;13.20;99.90;;;;;;4993932;28;20057;-86
2022/10/04 05:11:07;;;;;;;17.63;9.38;;;13.20;99.90;;;;;;4993875;28;20026;-87
2022/10/04 05:13:39;;;;;;;15.55;8.75;;;13.20;99.90;;;;;;4990825;28;20031;-86
2022/10/04 05:16:14;;;;;;;17.30;9.20;;;13.20;99.90;;;;;;5006846;28;20035;-86
2022/10/04 05:18:40;;;;;;;11.73;7.55;;;13.20;99.90;;;;;;4998539;28;20455;-86
2022/10/04 05:21:12;;;;;;;17.00;8.80;;;13.10;99.90;;;;;;4974312;28;20051;-87
2022/10/04 05:23:38;;;;;;;16.60;8.27;;;13.10;99.90;;;;;;4990396;28;20030;-87
2022/10/04 05:26:09;;;;;;;14.50;8.35;;;13.10;99.90;;;;;;4989825;28;20038;-86
2022/10/04 05:28:34;;;;;;;13.80;8.25;;;13.10;99.90;;;;;;5000667;28;20152;-86
2022/10/04 05:31:18;;;;;;;12.70;8.27;;;13.00;99.90;;;;;;4974092;28;20122;-86
2022/10/04 05:33:49;;;;;;;11.55;7.65;;;13.00;99.90;;;;;;5007007;28;20502;-90
2022/10/04 05:36:42;;;;;;;10.90;8.05;;;13.00;99.90;;;;;;4976454;28;20321;-95
2022/10/04 05:39:36;;;;;;;12.75;7.43;;;12.90;99.90;;;;;;5020058;28;20094;-96
2022/10/04 05:42:11;;;;;;;14.27;8.73;;;12.90;99.90;;;;;;5006501;28;20034;-96
2022/10/04 05:44:57;;;;;;;13.57;8.60;;;12.90;99.90;;;;;;5005019;28;20037;-96
2022/10/04 05:47:27;;;;;;;13.50;8.90;;;12.80;99.90;;;;;;4976614;28;20078;-95
2022/10/04 05:49:58;;;;;;;15.65;8.73;;;12.80;99.90;;;;;;4988867;28;20030;-95
2022/10/04 05:52:32;;;;;;;15.07;8.30;;;12.80;99.90;;;;;;4982166;28;20035;-96
2022/10/04 05:55:25;;;;;;;15.75;8.73;;;12.70;99.90;;;;;;4979631;28;20023;-95
2022/10/04 05:57:56;;;;;;;15.23;9.70;;;12.70;99.90;;;;;;4984114;28;20031;-96
2022/10/04 06:00:57;;;;;;;12.88;8.70;;;12.70;99.90;;;;;;4988141;28;20061;-95
2022/10/04 06:03:29;;;;;;;;;;;12.70;99.90;;;;;;5012330;28;20075;-94
2022/10/04 06:06:22;;;;;;;17.42;10.43;;;12.60;99.90;;;;;;4993767;28;19910;-96
2022/10/04 06:09:07;;;;;;;15.38;9.93;;;12.60;99.90;;;;;;5008273;28;20125;-93
2022/10/04 06:12:05;;;;;;;14.98;8.82;;;12.60;99.90;;;;;;5023737;28;20058;-96
2022/10/04 06:14:50;;;;;;;16.75;9.80;;;12.60;99.90;;;;;;5019134;28;20019;-96
2022/10/04 06:17:31;;;;;;;15.35;9.77;;;12.60;99.90;;;;;;5004974;28;20035;-94
2022/10/04 06:20:06;;;;;;;17.17;10.45;;;12.60;99.90;;;;;;5006479;28;20022;-94
2022/10/04 06:22:42;;;;;;;20.65;10.35;;;12.60;99.90;;;;;;5023212;28;20026;-94
2022/10/04 06:25:20;;;;;;;12.20;9.15;;;12.60;99.90;;;;;;5005629;28;20034;-94
2022/10/04 06:28:18;;;;;;;14.30;9.75;;;12.60;99.90;;;;;;5014173;28;20034;-95
2022/10/04 06:31:09;;;;;;;15.10;9.98;;;12.60;99.90;;;;;;4971027;28;20136;-94
2022/10/04 06:34:12;;;;;;;15.90;9.77;;;12.60;99.90;;;;;;5006519;28;20034;-96
2022/10/04 06:37:08;;;;;;;14.48;9.65;;;12.60;99.90;;;;;;5019229;28;20053;-96
2022/10/04 06:40:25;;;;;;;14.52;9.40;;;12.60;99.90;;;;;;5002167;28;20061;-95
2022/10/04 06:43:15;;;;;;;15.02;10.13;;;12.60;99.90;;;;;;5001302;28;20030;-95
2022/10/04 06:46:06;;;;;;;19.60;9.73;;;12.60;99.90;;;;;;5018297;28;20023;-95
2022/10/04 06:49:16;;;;;;;20.52;10.10;;;12.60;99.90;;;;;;5003830;28;20105;-94
2022/10/04 06:51:58;;;;;;;19.00;9.50;;;12.60;99.90;;;;;;5022445;28;20031;-95
2022/10/04 06:54:54;;;;;;;14.77;9.45;;;12.60;99.90;;;;;;5006949;28;20022;-95
2022/10/04 06:57:35;;;;;;;14.02;9.80;;;12.60;99.90;;;;;;5001577;28;20069;-95
2022/10/04 07:00:00;;;;;;;;;;;12.60;99.90;;;;;;4994766;28;20084;-87
2022/10/04 07:02:43;;;;;;;13.02;8.80;;;12.60;99.90;;;;;;4994131;28;19905;-87
2022/10/04 07:05:29;;;;;;;16.05;9.35;;;12.60;99.90;;;;;;4997525;28;20022;-87
2022/10/04 07:08:29;;;;;;;15.00;9.07;;;12.60;99.90;;;;;;4996274;28;20027;-87
2022/10/04 07:10:58;;;;;;;17.75;9.60;;;12.60;99.90;;;;;;4996429;28;20139;-88
2022/10/04 07:13:27;;;;;;;13.15;9.48;;;12.60;99.90;;;;;;4996403;28;20030;-87
2022/10/04 07:15:59;;;;;;;13.77;8.38;;;12.60;99.90;;;;;;4997267;28;20081;-84
2022/10/04 07:18:48;;;;;;;21.17;9.70;;;12.60;99.90;;;;;;4995645;28;20022;-85
2022/10/04 07:21:16;;;;;;;16.88;9.15;;;12.60;99.90;;;;;;4965857;28;20125;-86
2022/10/04 07:23:55;;;;;;;18.33;8.60;;;12.60;99.90;;;;;;4979646;28;20458;-87
2022/10/04 07:26:35;;;;;;;13.52;9.27;;;12.60;99.90;;;;;;4995886;28;20466;-87
2022/10/04 07:29:21;;;;;;;14.27;9.07;;;12.60;99.90;;;;;;4997104;28;20031;-87
2022/10/04 07:32:16;;;;;;;15.80;8.88;;;12.60;99.90;;;;;;4997020;28;20037;-86
2022/10/04 07:34:51;;;;;;;16.73;8.80;;;12.60;99.90;;;;;;4995323;28;20117;-86
2022/10/04 07:37:19;;;;;;;13.95;8.25;;;12.60;99.90;;;;;;4996442;28;20046;-87
2022/10/04 07:40:17;;;;;;;18.65;9.40;;;12.60;99.90;;;;;;4996785;28;20487;-88
2022/10/04 07:43:20;;;;;;;15.27;7.70;;;12.70;99.90;;;;;;4995945;28;20030;-88
2022/10/04 07:45:48;;;;;;;13.63;8.05;;;12.70;99.90;;;;;;4996476;28;20018;-87
2022/10/04 07:48:22;;;;;;;14.18;7.20;;;12.70;99.90;;;;;;4996347;28;20041;-88
2022/10/04 07:51:09;;;;;;;15.88;8.20;;;12.80;99.90;;;;;;4993330;28;20042;-87
2022/10/04 07:53:44;;;;;;;17.90;7.90;;;12.80;99.90;;;;;;4997166;28;20040;-88
2022/10/04 07:56:12;;;;;;;14.10;8.23;;;12.80;99.90;;;;;;5011030;28;20045;-80
2022/10/04 08:16:15;;;;;;;15.23;8.43;;;13.00;99.90;;;;;;4995823;28;20493;-87
2022/10/04 08:19:18;;;;;;;12.55;7.47;;;13.00;99.90;;;;;;5011791;28;20061;-87
2022/10/04 08:47:20;;;;;;;11.77;7.00;;;13.60;99.90;;;;;;4976800;28;20090;-88
2022/10/04 08:50:23;;;;;;;12.43;7.70;;;13.70;99.90;;;;;;4975645;28;20497;-88
2022/10/04 08:56:40;;;;;;;15.68;8.10;;;13.80;99.90;;;;;;4936186;29;20095;-87
2022/10/04 09:06:19;;;;;;;13.32;8.02;;;14.10;99.90;;;;;;4976151;28;20034;-88
2022/10/04 09:25:34;;;;;;;13.70;7.10;;;14.80;99.90;;;;;;4975981;28;20157;-88
2022/10/04 09:31:41;;;;;;;15.63;7.07;;;15.00;99.90;;;;;;4975894;28;20085;-88
2022/10/04 09:37:42;;;;;;;13.93;6.93;;;15.20;99.90;;;;;;4975425;28;20093;-88
2022/10/04 09:40:30;;;;;;;14.05;7.20;;;15.40;99.90;;;;;;4966155;28;20042;-89
2022/10/04 09:56:58;;;;;;;10.73;6.38;;;16.00;99.90;;;;;;4994311;28;20042;-86
2022/10/04 10:16:19;;;;;;;8.13;4.85;;;16.70;99.90;;;;;;4972490;28;20045;-85
2022/10/04 10:19:00;;;;;;;10.07;5.38;;;16.90;99.90;;;;;;4936424;28;20043;-85
2022/10/04 10:21:55;;;;;;;11.65;4.65;;;16.90;99.80;;;;;;4972065;28;20155;-86
2022/10/04 10:24:42;;;;;;;11.27;4.53;;;17.00;99.50;;;;;;4972011;28;20026;-86
2022/10/04 10:27:32;;;;;;;9.02;5.20;;;17.20;99.90;;;;;;4972003;28;20028;-86
2022/10/04 10:30:19;;;;;;;13.70;6.78;;;17.30;99.60;;;;;;4975826;28;20078;-86
2022/10/04 10:33:22;;;;;;;10.63;5.18;;;17.40;98.90;;;;;;4992546;28;20108;-86
2022/10/04 10:35:54;;;;;;;13.38;5.07;;;17.50;99.30;;;;;;4992481;28;20027;-86
2022/10/04 10:38:41;;;;;;;12.68;5.57;;;17.60;98.30;;;;;;4994025;28;20031;-91
2022/10/04 10:41:30;;;;;;;12.45;5.45;;;17.70;98.00;;;;;;4994989;28;20084;-85
2022/10/04 10:44:13;;;;;;;11.73;4.75;;;17.80;98.10;;;;;;5017387;28;20026;-88
2022/10/04 10:47:02;;;;;;;13.52;5.75;;;17.90;98.40;;;;;;5017270;28;20037;-87
2022/10/04 10:49:30;;;;;;;13.10;5.32;;;18.00;97.60;;;;;;5002196;28;20022;-86
2022/10/04 10:52:28;;;;;;;10.27;4.35;;;18.10;97.80;;;;;;5017496;28;20030;-86
2022/10/04 10:55:10;;;;;;;12.35;5.20;;;18.20;97.40;;;;;;5015897;28;20054;-86
2022/10/04 10:57:48;;;;;;;9.82;4.50;;;18.40;97.30;;;;;;5017038;28;20061;-85
2022/10/04 11:00:16;;;;;;;10.77;4.75;;;18.50;97.40;;;;;;5017041;28;20030;-85
2022/10/04 11:03:03;;;;;;;10.98;4.65;;;18.60;97.00;;;;;;5015484;28;20482;-86
2022/10/04 11:06:06;;;;;;;7.90;4.30;;;18.60;96.70;;;;;;5015578;28;20092;-86
2022/10/04 11:08:59;;;;;;;12.52;4.78;;;18.70;96.00;;;;;;5016574;28;20037;-85
2022/10/04 11:11:43;;;;;;;9.93;4.88;;;18.80;96.20;;;;;;5016689;28;20515;-87
2022/10/04 11:14:33;;;;;;;11.13;5.20;;;19.00;96.00;;;;;;5015555;28;20025;-86
2022/10/04 11:17:24;;;;;;;8.77;4.53;;;19.00;95.40;;;;;;5015540;28;20030;-86
2022/10/04 11:20:10;;;;;;;11.10;4.82;;;19.10;94.70;;;;;;4999097;28;20026;-85
2022/10/04 11:23:09;;;;;;;12.60;5.50;;;19.20;94.90;;;;;;5015152;28;20026;-86
2022/10/04 11:25:56;;;;;;;11.63;5.40;;;19.30;94.70;;;;;;5016609;28;20022;-86
2022/10/04 11:28:49;;;;;;;10.30;5.45;;;19.40;94.40;;;;;;4999311;28;20014;-85
2022/10/04 11:31:44;;;;;;;10.60;5.05;;;19.40;94.20;;;;;;5015579;28;20099;-86
2022/10/04 11:34:34;;;;;;;12.27;4.93;;;19.50;94.10;;;;;;5015633;28;20116;-89
2022/10/04 11:37:30;;;;;;;10.45;5.30;;;19.60;93.70;;;;;;5015262;28;20084;-86
2022/10/04 11:40:25;;;;;;;13.93;5.65;;;19.70;94.10;;;;;;4998250;28;20049;-85
2022/10/04 11:43:10;;;;;;;12.82;5.30;;;19.80;94.40;;;;;;5015946;28;20025;-85
2022/10/04 11:46:15;;;;;;;10.90;3.70;;;19.90;94.10;;;;;;5016264;28;20018;-85
2022/10/04 11:49:00;;;;;;;9.73;4.32;;;20.10;93.50;;;;;;5015760;28;20018;-85
2022/10/04 11:52:07;;;;;;;10.32;4.25;;;20.10;92.20;;;;;;5001980;28;20064;-85
2022/10/04 11:55:06;;;;;;;8.20;3.80;;;20.20;91.50;;;;;;4993046;28;20092;-85
2022/10/04 11:57:42;;;;;;;11.25;4.03;;;20.20;91.30;;;;;;5014354;28;20532;-87
2022/10/04 12:00:19;;;;;;;6.50;3.38;;;20.20;90.00;;;;;;5015849;28;20022;-86
2022/10/04 12:02:58;;;;;;;8.43;3.53;;;20.30;90.40;;;;;;4998063;28;20076;-85
2022/10/04 12:05:39;;;;;;;7.05;3.47;;;20.20;90.60;;;;;;5014334;28;20429;-85
2022/10/04 12:08:14;;;;;;;;;;;20.30;90.70;;;;;;4998544;28;20040;-86
2022/10/04 12:10:42;;;;;;;9.95;3.67;;;20.40;91.30;;;;;;5014235;28;20258;-87
2022/10/04 12:13:34;;;;;;;7.47;3.28;;;20.50;90.40;;;;;;4998616;28;20026;-89
2022/10/04 12:16:28;;;;;;;8.65;3.50;;;20.50;89.40;;;;;;5015905;28;20057;-88
2022/10/04 12:19:28;;;;;;;9.60;3.47;;;20.50;88.20;;;;;;5014022;28;20544;-87
2022/10/04 12:22:40;;;;;;;8.27;3.40;;;20.50;89.60;;;;;;4998067;28;20022;-88
2022/10/04 12:25:20;;;;;;;8.32;3.47;;;20.60;88.00;;;;;;4997616;28;20124;-88
2022/10/04 12:28:11;;;;;;;7.85;3.95;;;20.60;87.00;;;;;;5014318;28;20354;-87
2022/10/04 12:31:05;;;;;;;10.57;3.70;;;20.60;87.20;;;;;;5013821;28;20022;-87
2022/10/04 12:33:34;;;;;;;6.75;2.83;;;20.60;89.10;;;;;;5014897;28;20470;-87
2022/10/04 12:36:07;;;;;;;10.82;3.45;;;20.50;87.60;;;;;;4997986;28;20076;-87
2022/10/04 12:38:49;;;;;;;7.97;2.85;;;20.60;88.50;;;;;;5015448;28;20101;-87
2022/10/04 12:41:38;;;;;;;6.78;3.00;;;20.70;88.80;;;;;;5015094;28;20048;-87
2022/10/04 12:44:29;;;;;;;6.38;3.35;;;20.70;86.40;;;;;;5014909;28;20532;-87
2022/10/04 12:47:23;;;;;;;8.20;4.00;;;20.70;86.00;;;;;;4997661;28;20056;-85
2022/10/04 12:50:21;;;;;;;8.93;3.22;;;20.70;85.30;;;;;;5013812;28;20018;-86
2022/10/04 12:53:13;;;;;;;5.95;2.80;;;20.80;83.60;;;;;;5013705;28;20374;-87
2022/10/04 12:55:54;;;;;;;8.18;2.72;;;20.80;85.00;;;;;;4997265;28;20030;-87
2022/10/04 12:58:28;;;;;;;4.28;2.45;;;20.90;86.10;;;;;;5015066;28;20117;-87
2022/10/04 13:01:08;;;;;;;7.88;2.90;;;21.10;85.90;;;;;;4997222;28;20462;-86
2022/10/04 13:03:43;;;;;;;15.20;3.75;;;21.10;83.60;;;;;;4997355;28;20437;-87
2022/10/04 13:06:48;;;;;;;10.68;4.20;;;21.20;82.20;;;;;;5013565;28;20025;-87
2022/10/04 13:09:27;;;;;;;8.77;2.78;;;21.20;80.00;;;;;;4981894;28;20050;-88
2022/10/04 13:12:02;;;;;;;8.20;3.35;;;21.30;80.40;;;;;;4997330;28;20018;-87
2022/10/04 13:14:47;;;;;;;6.47;3.40;;;21.20;79.60;;;;;;5015059;28;20105;-87
2022/10/04 13:17:30;;;;;;;7.68;3.08;;;21.20;78.80;;;;;;5014841;28;20072;-86
2022/10/04 13:20:34;;;;;;;7.93;3.30;;;21.20;78.60;;;;;;5013211;28;20045;-86
2022/10/04 13:23:23;;;;;;;8.13;2.85;;;21.30;80.80;;;;;;4994061;28;20037;-87
2022/10/04 13:26:14;;;;;;;7.75;2.78;;;21.40;79.70;;;;;;5013130;28;20075;-87
2022/10/04 13:28:50;;;;;;;6.43;2.60;;;21.50;80.40;;;;;;5014330;28;20366;-87
2022/10/04 13:31:37;;;;;;;5.60;2.60;;;21.50;77.70;;;;;;5012613;28;20030;-85
2022/10/04 13:34:21;;;;;;;7.53;2.67;;;21.50;78.20;;;;;;5012406;28;20037;-85
2022/10/04 13:37:12;;;;;;;6.03;2.30;;;21.50;76.60;;;;;;5013855;28;20092;-85
2022/10/04 13:40:02;;;;;;;4.30;2.25;;;21.50;76.50;;;;;;5012632;28;20026;-85
2022/10/04 13:42:53;;;;;;;5.38;2.60;;;21.50;76.50;;;;;;5012765;28;20053;-86
2022/10/04 13:45:33;;;;;;;5.60;2.85;;;21.50;75.40;;;;;;5012925;28;20072;-85
2022/10/04 13:48:22;;;;;;;8.33;2.63;;;21.50;76.60;;;;;;5012689;28;20493;-85
2022/10/04 13:50:56;;;;;;;4.72;2.28;;;21.60;76.20;;;;;;5012548;28;20504;-85
2022/10/04 13:56:41;;;;;;;7.63;3.07;;;21.70;76.30;;;;;;5013927;28;20037;-85
2022/10/04 13:59:28;;;;;;;7.70;2.60;;;21.70;76.20;;;;;;5014414;28;20269;-85
2022/10/04 14:02:13;;;;;;;11.48;3.13;;;21.80;76.60;;;;;;4995961;28;20466;-86
2022/10/04 14:04:59;;;;;;;6.00;2.80;;;21.80;76.70;;;;;;5012425;28;20467;-84
2022/10/04 14:08:04;;;;;;;7.70;2.90;;;21.90;77.50;;;;;;5013958;28;20034;-85
2022/10/04 14:10:54;;;;;;;9.65;2.85;;;21.90;75.90;;;;;;5013648;28;20034;-85
2022/10/04 14:13:39;;;;;;;6.85;2.42;;;21.90;75.60;;;;;;5013042;28;20098;-86
2022/10/04 14:16:05;;;;;;;6.10;2.50;;;21.80;76.40;;;;;;5013375;28;20030;-85
2022/10/04 14:18:42;;;;;;;7.85;3.20;;;21.90;76.40;;;;;;5013463;28;20061;-87
2022/10/04 14:21:20;;;;;;;8.63;3.10;;;21.80;76.40;;;;;;5012481;28;20026;-89
2022/10/04 14:24:20;;;;;;;6.60;2.90;;;21.80;75.80;;;;;;5014202;28;20366;-93
2022/10/04 14:27:01;;;;;;;5.63;2.50;;;21.80;76.30;;;;;;4996643;28;20025;-93
2022/10/04 14:29:39;;;;;;;6.88;3.13;;;21.70;76.10;;;;;;5014257;28;20034;-90
2022/10/04 14:32:28;;;;;;;6.03;2.90;;;21.60;75.50;;;;;;5014461;28;20025;-89
2022/10/04 14:35:20;;;;;;;5.57;2.92;;;21.60;75.80;;;;;;5013066;28;20022;-89
2022/10/04 14:37:58;;;;;;;9.52;3.50;;;21.50;75.80;;;;;;4996342;28;20030;-90
2022/10/04 14:40:39;;;;;;;7.07;3.08;;;21.40;76.60;;;;;;5005232;28;20202;-89
2022/10/04 14:43:19;;;;;;;8.00;3.08;;;21.40;77.00;;;;;;4994314;28;20030;-90
2022/10/04 14:46:08;;;;;;;7.28;3.00;;;21.40;77.40;;;;;;5002324;28;20027;-89
2022/10/04 14:49:11;;;;;;;5.78;2.53;;;21.30;77.60;;;;;;4994355;28;20042;-89
2022/10/04 14:51:50;;;;;;;6.55;2.70;;;21.30;78.40;;;;;;4993446;28;20034;-90
2022/10/04 14:54:54;;;;;;;5.00;2.35;;;21.30;78.90;;;;;;4993259;28;20026;-89
2022/10/04 14:57:25;;;;;;;9.02;2.75;;;21.30;79.70;;;;;;4990991;28;20047;-90
2022/10/04 15:00:16;;;;;;;6.50;2.67;;;21.30;78.80;;;;;;5009406;28;20027;-90
2022/10/04 15:02:48;;;;;;;8.32;2.72;;;21.30;78.80;;;;;;5009376;28;20494;-90
2022/10/04 15:05:59;;;;;;;5.38;2.60;;;21.30;79.10;;;;;;5009260;28;20031;-89
2022/10/04 15:08:45;;;;;;;7.47;2.28;;;21.30;78.40;;;;;;4993229;28;20031;-90
2022/10/04 15:11:16;;;;;;;7.55;3.05;;;21.30;80.00;;;;;;4993825;28;20533;-90
2022/10/04 15:13:54;;;;;;;8.18;3.33;;;21.30;79.50;;;;;;4994153;28;20023;-90
2022/10/04 15:16:22;;;;;;;4.00;2.20;;;21.40;79.70;;;;;;4993044;28;20065;-89
2022/10/04 15:18:56;;;;;;;6.93;2.50;;;21.40;80.40;;;;;;5009102;28;20030;-89
2022/10/04 15:21:43;;;;;;;6.63;3.15;;;21.40;80.80;;;;;;4993860;28;20022;-90
2022/10/04 15:24:14;;;;;;;8.95;3.22;;;21.40;79.80;;;;;;5008990;28;20030;-90
2022/10/04 15:26:54;;;;;;;7.88;2.72;;;21.40;79.80;;;;;;4997647;28;20026;-91
2022/10/04 15:29:42;;;;;;;6.47;2.95;;;21.40;79.80;;;;;;5012780;28;20065;-90
2022/10/04 15:32:16;;;;;;;5.80;3.03;;;21.30;79.50;;;;;;5018348;28;20501;-95
2022/10/04 15:34:48;;;;;;;8.40;3.40;;;21.30;79.90;;;;;;5014965;28;20113;-96
2022/10/04 15:37:38;;;;;;;6.88;2.80;;;21.30;79.90;;;;;;5016440;28;20041;-96
2022/10/04 15:40:24;;;;;;;5.13;2.42;;;21.30;79.90;;;;;;5015213;28;20077;-96
2022/10/04 15:43:05;;;;;;;7.13;3.00;;;21.20;80.30;;;;;;5019354;28;20030;-96
2022/10/04 15:45:37;;;;;;;5.75;2.78;;;21.20;80.10;;;;;;5018227;28;20018;-96
2022/10/04 15:48:09;;;;;;;5.60;2.63;;;21.20;80.50;;;;;;5020382;28;20445;-96